createdAt,value
2023-01-04T00:04:24.763Z,4.30
2023-01-04T00:09:27.417Z,4.20
2023-01-04T00:14:30.264Z,4.20
2023-01-04T00:19:33.126Z,4.20
2023-01-04T00:24:35.774Z,4.20
2023-01-04T00:29:38.531Z,4.20
2023-01-04T00:34:41.242Z,4.20
2023-01-04T00:39:44.029Z,4.10
2023-01-04T00:44:46.599Z,4.20
2023-01-04T00:49:49.196Z,4.30
2023-01-04T00:54:52.205Z,4.20
2023-01-04T00:59:54.853Z,4.20
2023-01-04T01:04:57.488Z,4.10
2023-01-04T01:10:00.726Z,3.90
2023-01-04T01:15:03.896Z,3.70
2023-01-04T01:20:07.132Z,3.60
2023-01-04T01:25:09.845Z,3.40
2023-01-04T01:30:12.830Z,3.30
2023-01-04T01:35:15.516Z,3.00
2023-01-04T01:40:18.476Z,2.80
2023-01-04T01:45:35.065Z,2.80
2023-01-04T01:50:53.006Z,2.70
2023-01-04T01:55:58.157Z,2.60
2023-01-04T02:01:01.335Z,2.50
2023-01-04T02:06:08.817Z,2.40
2023-01-04T02:11:11.555Z,2.30
2023-01-04T02:16:26.082Z,2.30
2023-01-04T02:21:57.382Z,2.30
2023-01-04T02:27:34.923Z,2.30
2023-01-04T02:33:15.953Z,2.40
2023-01-04T02:38:56.628Z,2.40
2023-01-04T02:44:29.029Z,2.50
2023-01-04T02:49:50.012Z,2.50
2023-01-04T02:54:55.912Z,2.60
2023-01-04T03:00:26.463Z,2.60
2023-01-04T03:06:04.465Z,2.60
2023-01-04T03:11:34.060Z,2.50
2023-01-04T03:16:39.181Z,2.60
2023-01-04T03:21:45.897Z,2.50
2023-01-04T03:27:26.717Z,2.40
2023-01-04T03:33:27.876Z,2.00
2023-01-04T03:39:20.137Z,1.80
2023-01-04T03:45:09.943Z,1.40
2023-01-04T03:50:27.571Z,1.00
2023-01-04T03:55:32.037Z,0.90
2023-01-04T04:00:35.647Z,0.90
2023-01-04T04:06:02.912Z,0.90
2023-01-04T04:11:24.005Z,0.70
2023-01-04T04:16:27.152Z,0.90
2023-01-04T04:21:29.813Z,0.80
2023-01-04T04:26:32.545Z,0.80
2023-01-04T04:31:35.199Z,0.90
2023-01-04T04:36:38.424Z,1.10
2023-01-04T04:41:41.990Z,1.10
2023-01-04T04:46:46.215Z,1.00
2023-01-04T04:51:48.937Z,1.00
2023-01-04T04:56:51.721Z,1.00
2023-01-04T05:01:54.541Z,1.10
2023-01-04T05:06:57.458Z,1.10
2023-01-04T05:12:18.446Z,1.10
2023-01-04T05:17:21.121Z,1.10
2023-01-04T05:22:23.887Z,0.90
2023-01-04T05:27:26.801Z,0.80
2023-01-04T05:32:29.534Z,0.80
2023-01-04T05:37:32.283Z,0.70
2023-01-04T05:42:34.946Z,0.70
2023-01-04T05:47:37.990Z,0.90
2023-01-04T05:52:40.715Z,0.90
2023-01-04T05:57:43.690Z,1.10
2023-01-04T06:02:46.457Z,1.20
2023-01-04T06:07:49.418Z,0.90
2023-01-04T06:12:52.391Z,0.70
2023-01-04T06:17:55.162Z,0.60
2023-01-04T06:22:57.939Z,0.40
2023-01-04T06:28:00.707Z,0.10
2023-01-04T06:33:03.485Z,-0.20
2023-01-04T06:38:06.327Z,-0.40
2023-01-04T06:43:09.466Z,-0.40
2023-01-04T06:48:12.416Z,-0.40
2023-01-04T06:53:21.160Z,-0.30
2023-01-04T06:58:24.224Z,-0.10
2023-01-04T07:03:27.153Z,-0.20
2023-01-04T07:08:30.515Z,-0.10
2023-01-04T07:13:33.581Z,-0.10
2023-01-04T07:18:37.507Z,-0.20
2023-01-04T07:23:40.457Z,-0.20
2023-01-04T07:29:01.514Z,-0.20
2023-01-04T07:34:04.264Z,-0.20
2023-01-04T07:39:10.322Z,0.00
2023-01-04T07:44:14.301Z,0.50
2023-01-04T07:49:18.794Z,0.90
2023-01-04T07:54:21.826Z,2.00
2023-01-04T07:59:25.349Z,2.40
2023-01-04T08:04:34.428Z,2.30
2023-01-04T08:09:37.791Z,2.70
2023-01-04T08:14:40.528Z,4.20
2023-01-04T08:19:43.418Z,4.80
2023-01-04T08:24:46.166Z,5.10
2023-01-04T08:29:48.909Z,5.10
2023-01-04T08:34:51.685Z,5.40
2023-01-04T08:39:54.504Z,5.50
2023-01-04T08:44:59.755Z,6.20
2023-01-04T08:50:09.877Z,7.00
2023-01-04T08:55:16.792Z,8.10
2023-01-04T09:00:22.208Z,10.50
2023-01-04T09:05:26.786Z,13.80
2023-01-04T09:10:29.656Z,16.50
2023-01-04T09:15:34.093Z,17.90
2023-01-04T09:20:37.810Z,18.90
2023-01-04T09:25:40.817Z,19.00
2023-01-04T09:30:43.692Z,18.70
2023-01-04T09:35:46.707Z,20.10
2023-01-04T09:41:15.288Z,19.70
2023-01-04T09:46:26.864Z,17.30
2023-01-04T09:51:35.122Z,16.10
2023-01-04T09:56:39.511Z,15.80
2023-01-04T10:01:50.697Z,17.40
2023-01-04T10:06:57.056Z,18.50
2023-01-04T10:12:09.858Z,16.20
2023-01-04T10:17:57.656Z,16.00
2023-01-04T10:22:53.143Z,17.70
2023-01-04T10:28:07.875Z,18.20
2023-01-04T10:33:12.032Z,17.60
2023-01-04T10:38:22.652Z,18.00
2023-01-04T10:44:12.209Z,17.30
2023-01-04T10:49:42.205Z,18.60
2023-01-04T10:55:11.556Z,18.50
2023-01-04T11:00:31.065Z,20.30
2023-01-04T11:05:39.732Z,19.30
2023-01-04T11:10:54.871Z,18.90
2023-01-04T11:15:59.357Z,17.20
2023-01-04T11:21:06.997Z,17.90
2023-01-04T11:26:17.901Z,18.00
2023-01-04T11:31:31.033Z,16.90
2023-01-04T11:36:45.084Z,16.70
2023-01-04T11:42:03.404Z,16.00
2023-01-04T11:47:24.243Z,16.70
2023-01-04T11:52:28.121Z,15.80
2023-01-04T11:57:30.896Z,14.90
2023-01-04T12:03:02.698Z,14.00
2023-01-04T12:07:56.982Z,12.40
2023-01-04T12:13:02.519Z,12.40
2023-01-04T12:18:11.081Z,12.90
2023-01-04T12:23:14.916Z,13.90
2023-01-04T12:28:42.118Z,14.10
2023-01-04T12:33:52.046Z,14.70
2023-01-04T12:38:59.702Z,14.90
2023-01-04T12:44:03.836Z,14.70
2023-01-04T12:49:26.671Z,14.10
2023-01-04T12:54:46.476Z,13.80
2023-01-04T13:00:01.745Z,12.80
2023-01-04T13:10:50.397Z,11.10
2023-01-04T13:16:28.090Z,10.70
2023-01-04T13:21:47.653Z,10.40
2023-01-04T13:26:52.317Z,10.20
2023-01-04T13:31:59.957Z,10.00
2023-01-04T13:37:23.672Z,9.90
2023-01-04T13:42:26.951Z,9.70
2023-01-04T13:47:34.600Z,9.60
2023-01-04T13:52:56.380Z,9.60
2023-01-04T13:58:04.802Z,9.60
2023-01-04T14:03:10.718Z,9.50
2023-01-04T14:08:25.546Z,9.40
2023-01-04T14:13:29.564Z,9.40
2023-01-04T14:18:32.782Z,9.20
2023-01-04T14:23:38.734Z,9.10
2023-01-04T14:28:49.327Z,9.10
2023-01-04T14:33:54.152Z,8.90
2023-01-04T14:38:59.856Z,8.80
2023-01-04T14:44:15.842Z,8.70
2023-01-04T14:49:20.161Z,8.70
2023-01-04T14:54:25.590Z,8.70
2023-01-04T14:59:29.031Z,8.70
2023-01-04T15:04:31.774Z,8.70
2023-01-04T15:09:36.195Z,8.60
2023-01-04T15:14:39.035Z,8.60
2023-01-04T15:19:41.807Z,8.70
2023-01-04T15:24:44.528Z,8.70
2023-01-04T15:29:47.261Z,8.70
2023-01-04T15:34:50.463Z,8.70
2023-01-04T15:39:59.961Z,8.70
2023-01-04T15:45:06.362Z,8.70
2023-01-04T15:50:09.342Z,8.60
2023-01-04T15:55:14.644Z,8.70
2023-01-04T16:00:18.072Z,8.60
2023-01-04T16:05:21.293Z,8.60
2023-01-04T16:10:24.141Z,8.80
2023-01-04T16:15:26.979Z,8.80
2023-01-04T16:20:29.901Z,8.80
2023-01-04T16:25:32.777Z,8.90
2023-01-04T16:30:36.841Z,8.80
2023-01-04T16:35:39.577Z,8.80
2023-01-04T16:40:42.310Z,8.70
2023-01-04T16:45:45.191Z,8.70
2023-01-04T16:50:48.087Z,8.60
2023-01-04T16:55:53.717Z,8.50
2023-01-04T17:00:56.689Z,8.50
2023-01-04T17:05:59.588Z,8.60
2023-01-04T17:11:50.838Z,8.60
2023-01-04T17:16:34.704Z,8.60
2023-01-04T17:21:37.875Z,8.70
2023-01-04T17:26:41.060Z,8.60
2023-01-04T17:31:45.399Z,8.60
2023-01-04T17:36:48.667Z,8.70
2023-01-04T17:41:51.463Z,8.60
2023-01-04T17:46:54.447Z,8.60
2023-01-04T17:51:58.316Z,8.60
2023-01-04T17:57:01.329Z,8.50
2023-01-04T18:02:04.214Z,8.50
2023-01-04T18:07:07.124Z,8.50
2023-01-04T18:12:09.919Z,8.50
2023-01-04T18:17:13.327Z,8.50
2023-01-04T18:22:17.055Z,8.50
2023-01-04T18:27:22.143Z,8.50
2023-01-04T18:32:27.301Z,8.50
2023-01-04T18:37:30.301Z,8.50
2023-01-04T18:42:33.258Z,8.50
2023-01-04T18:47:36.069Z,8.50
2023-01-04T18:52:39.105Z,8.50
2023-01-04T18:57:42.237Z,8.50
2023-01-04T19:02:45.129Z,8.40
2023-01-04T19:07:48.074Z,8.40
2023-01-04T19:12:51.174Z,8.40
2023-01-04T19:17:53.932Z,8.30
2023-01-04T19:22:56.663Z,8.40
2023-01-04T19:27:59.541Z,8.50
2023-01-04T19:33:02.278Z,8.60
2023-01-04T19:38:05.061Z,8.70
2023-01-04T19:43:08.028Z,8.80
2023-01-04T19:48:10.719Z,8.90
2023-01-04T19:53:14.277Z,8.80
2023-01-04T19:58:17.905Z,8.90
2023-01-04T20:03:22.249Z,9.00
2023-01-04T20:08:25.037Z,9.10
2023-01-04T20:13:29.793Z,9.20
2023-01-04T20:18:34.044Z,9.20
2023-01-04T20:23:38.129Z,9.20
2023-01-04T20:28:44.118Z,9.30
2023-01-04T20:33:47.984Z,9.40
2023-01-04T20:38:51.147Z,9.40
2023-01-04T20:43:53.839Z,9.30
2023-01-04T20:48:56.535Z,9.30
2023-01-04T20:54:00.492Z,9.30
2023-01-04T20:59:03.534Z,9.40
2023-01-04T21:04:06.549Z,9.40
2023-01-04T21:09:09.350Z,9.40
2023-01-04T21:14:12.267Z,9.50
2023-01-04T21:19:15.381Z,9.50
2023-01-04T21:24:18.203Z,9.50
2023-01-04T21:29:21.221Z,9.50
2023-01-04T21:34:24.289Z,9.50
2023-01-04T21:39:28.227Z,9.60
2023-01-04T21:44:31.768Z,9.50
2023-01-04T21:49:34.517Z,9.50
2023-01-04T21:54:38.406Z,9.40
2023-01-04T21:59:41.232Z,9.50
2023-01-04T22:04:44.968Z,9.40
2023-01-04T22:09:51.146Z,9.40
2023-01-04T22:14:59.030Z,9.40
2023-01-04T22:20:02.022Z,9.40
2023-01-04T22:25:05.174Z,9.40
2023-01-04T22:30:08.483Z,9.40
2023-01-04T22:35:11.411Z,9.40
2023-01-04T22:40:14.608Z,9.50
2023-01-04T22:45:17.484Z,9.40
2023-01-04T22:50:20.188Z,9.40
2023-01-04T22:55:23.818Z,9.40
2023-01-04T23:00:26.594Z,9.50
2023-01-04T23:05:30.372Z,9.50
2023-01-04T23:10:35.060Z,9.50
2023-01-04T23:15:39.857Z,9.50
2023-01-04T23:20:42.525Z,9.50
2023-01-04T23:25:45.299Z,9.40
2023-01-04T23:30:49.922Z,9.30
2023-01-04T23:35:52.707Z,9.20
2023-01-04T23:40:55.410Z,9.20
2023-01-04T23:45:58.137Z,9.10
2023-01-04T23:51:01.026Z,9.00
2023-01-04T23:56:07.130Z,8.90
